Time;durP1;ratioP1;P1;durP2;ratioP2;P2;SDS_P1;SDS_P2;PMS_P1;PMS_P2;Temp;Humidity;BMP_temperature;BMP_pressure;BME280_temperature;BME280_humidity;BME280_pressure;Samples;Min_cycle;Max_cycle;Signal;HPM_P1;HPM_P2
2022/03/21 00:00:52;;;;;;;1.58;0.50;;;;;;;;;;5006087;28;20044;-61
2022/03/21 00:03:19;;;;;;;1.88;0.60;;;;;;;;;;5006635;28;20038;-63
2022/03/21 00:05:45;;;;;;;2.08;0.60;;;;;;;;;;5006979;28;20058;-63
2022/03/21 00:08:11;;;;;;;2.83;0.60;;;;;;;;;;5007131;28;20095;-63
2022/03/21 00:10:38;;;;;;;7.32;0.60;;;;;;;;;;5007553;28;20668;-62
2022/03/21 00:13:04;;;;;;;2.78;0.68;;;;;;;;;;5006891;27;20038;-62
2022/03/21 00:15:32;;;;;;;2.42;0.60;;;;;;;;;;5004026;28;20357;-62
2022/03/21 00:18:03;;;;;;;1.50;0.50;;;;;;;;;;5006099;27;20124;-62
2022/03/21 00:20:29;;;;;;;1.42;0.50;;;;;;;;;;5006949;27;21959;-62
2022/03/21 00:22:56;;;;;;;2.45;0.50;;;;;;;;;;5003751;28;20133;-63
2022/03/21 00:25:22;;;;;;;1.92;0.50;;;;;;;;;;5004978;28;20052;-63
2022/03/21 00:27:48;;;;;;;1.50;0.57;;;;;;;;;;5006427;28;20053;-62
2022/03/21 00:30:14;;;;;;;2.20;0.60;;;;;;;;;;5007638;28;20612;-63
2022/03/21 00:32:41;;;;;;;2.20;0.70;;;;;;;;;;5006680;28;20050;-63
2022/03/21 00:35:08;;;;;;;1.35;0.50;;;;;;;;;;5007728;28;21079;-61
2022/03/21 00:37:37;;;;;;;3.05;0.60;;;;;;;;;;5006577;28;20513;-63
2022/03/21 00:40:05;;;;;;;2.40;0.70;;;;;;;;;;5006489;28;20708;-63
2022/03/21 00:42:34;;;;;;;2.22;0.70;;;;;;;;;;5010333;28;20038;-62
2022/03/21 00:45:03;;;;;;;4.43;0.70;;;;;;;;;;5004091;28;20513;-62
2022/03/21 00:47:31;;;;;;;4.28;0.70;;;;;;;;;;5004349;28;20050;-63
2022/03/21 00:49:57;;;;;;;2.53;0.65;;;;;;;;;;5006510;28;20034;-62
2022/03/21 00:52:23;;;;;;;1.08;0.50;;;;;;;;;;5004255;28;20042;-61
2022/03/21 00:54:49;;;;;;;2.70;0.60;;;;;;;;;;5006036;28;20117;-63
2022/03/21 00:57:16;;;;;;;2.85;0.80;;;;;;;;;;5005324;28;20030;-63
2022/03/21 00:59:42;;;;;;;3.40;0.90;;;;;;;;;;5004168;28;20038;-62
2022/03/21 01:02:12;;;;;;;2.88;0.90;;;;;;;;;;5018873;28;20046;-63
2022/03/21 01:04:38;;;;;;;5.65;1.00;;;;;;;;;;5002846;28;20036;-62
2022/03/21 01:07:05;;;;;;;3.22;0.80;;;;;;;;;;4987484;28;20120;-62
2022/03/21 01:09:31;;;;;;;4.07;0.80;;;;;;;;;;5005735;28;20046;-62
2022/03/21 01:11:57;;;;;;;2.58;0.70;;;;;;;;;;5002655;28;20130;-63
2022/03/21 01:14:23;;;;;;;2.17;0.70;;;;;;;;;;5003205;28;20125;-64
2022/03/21 01:16:53;;;;;;;3.40;0.90;;;;;;;;;;5004709;28;20048;-62
2022/03/21 01:19:19;;;;;;;2.13;0.57;;;;;;;;;;5004561;28;20402;-62
2022/03/21 01:21:45;;;;;;;1.08;0.50;;;;;;;;;;5005350;28;20058;-63
2022/03/21 01:24:11;;;;;;;3.53;0.63;;;;;;;;;;5005853;28;20090;-62
2022/03/21 01:26:37;;;;;;;1.98;0.60;;;;;;;;;;5003741;28;20054;-62
2022/03/21 01:29:03;;;;;;;2.17;0.68;;;;;;;;;;5004263;28;20118;-62
2022/03/21 01:31:29;;;;;;;4.70;0.65;;;;;;;;;;5004619;28;20076;-62
2022/03/21 01:33:55;;;;;;;1.15;0.50;;;;;;;;;;5005904;28;20526;-61
2022/03/21 01:36:22;;;;;;;1.85;0.60;;;;;;;;;;5004375;28;20046;-63
2022/03/21 01:38:48;;;;;;;3.10;0.70;;;;;;;;;;5005608;28;21746;-62
2022/03/21 01:41:14;;;;;;;2.25;0.68;;;;;;;;;;5004390;28;20034;-64
2022/03/21 01:44:00;;;;;;;3.72;0.82;;;;;;;;;;5005528;28;20046;-61
2022/03/21 01:46:27;;;;;;;3.03;0.80;;;;;;;;;;5004192;28;20136;-63
2022/03/21 01:48:53;;;;;;;5.00;0.80;;;;;;;;;;5006502;28;20100;-63
2022/03/21 01:51:19;;;;;;;2.50;0.68;;;;;;;;;;5004537;28;20037;-62
2022/03/21 01:56:30;;;;;;;3.42;0.60;;;;;;;;;;5008732;28;20048;-62
2022/03/21 01:58:56;;;;;;;4.95;1.10;;;;;;;;;;5008262;28;20838;-62
2022/03/21 02:01:22;;;;;;;5.53;1.38;;;;;;;;;;5008168;28;20101;-64
2022/03/21 02:03:48;;;;;;;3.20;1.05;;;;;;;;;;5005929;28;20044;-62
2022/03/21 02:06:14;;;;;;;3.83;1.02;;;;;;;;;;5003141;28;20041;-63
2022/03/21 02:08:40;;;;;;;4.63;1.00;;;;;;;;;;5006286;28;21947;-63
2022/03/21 02:11:06;;;;;;;4.97;0.93;;;;;;;;;;5005245;28;20908;-64
2022/03/21 02:13:34;;;;;;;4.47;1.30;;;;;;;;;;5002295;28;20038;-62
2022/03/21 02:16:00;;;;;;;5.43;1.10;;;;;;;;;;5002787;28;20046;-61
2022/03/21 02:18:27;;;;;;;3.78;1.00;;;;;;;;;;5006068;28;20042;-61
2022/03/21 02:20:53;;;;;;;3.15;0.98;;;;;;;;;;5004500;27;20102;-62
2022/03/21 02:23:25;;;;;;;4.70;1.00;;;;;;;;;;5103642;27;20074;-63
2022/03/21 02:25:52;;;;;;;3.03;0.98;;;;;;;;;;5003805;28;20045;-63
2022/03/21 02:28:18;;;;;;;6.53;1.00;;;;;;;;;;5004134;28;20038;-64
2022/03/21 02:30:45;;;;;;;2.58;0.68;;;;;;;;;;5003834;28;20036;-61
2022/03/21 02:33:12;;;;;;;2.00;0.65;;;;;;;;;;5006746;28;20025;-64
2022/03/21 02:35:38;;;;;;;1.95;0.60;;;;;;;;;;5005620;28;20038;-62
2022/03/21 02:38:05;;;;;;;4.07;0.88;;;;;;;;;;5006971;28;20042;-63
2022/03/21 02:40:32;;;;;;;6.47;1.10;;;;;;;;;;5008050;28;20352;-62
2022/03/21 02:42:58;;;;;;;5.57;0.98;;;;;;;;;;5010725;27;20048;-62
2022/03/21 02:45:24;;;;;;;3.67;1.20;;;;;;;;;;5006350;28;20043;-63
2022/03/21 02:47:50;;;;;;;5.93;0.90;;;;;;;;;;5008358;28;20054;-64
2022/03/21 02:50:17;;;;;;;3.10;0.80;;;;;;;;;;5007887;28;20037;-63
2022/03/21 02:52:45;;;;;;;2.35;0.80;;;;;;;;;;5005898;28;20049;-63
2022/03/21 02:55:11;;;;;;;1.95;0.60;;;;;;;;;;5006246;28;20038;-61
2022/03/21 02:57:37;;;;;;;1.98;0.50;;;;;;;;;;5005134;28;21750;-63
2022/03/21 03:00:04;;;;;;;1.58;0.50;;;;;;;;;;5007168;28;20125;-62
2022/03/21 03:02:30;;;;;;;1.35;0.50;;;;;;;;;;5005367;28;20061;-63
2022/03/21 03:04:56;;;;;;;1.70;0.60;;;;;;;;;;5004834;28;20088;-63
2022/03/21 03:07:22;;;;;;;11.80;0.75;;;;;;;;;;5006788;28;20579;-61
2022/03/21 03:09:47;;;;;;;1.83;0.60;;;;;;;;;;5007354;28;20049;-61
2022/03/21 03:12:13;;;;;;;1.98;0.60;;;;;;;;;;5005177;28;20038;-61
2022/03/21 03:14:39;;;;;;;4.65;0.65;;;;;;;;;;5004981;28;20696;-59
2022/03/21 03:17:06;;;;;;;1.55;0.50;;;;;;;;;;5007946;27;20052;-60
2022/03/21 03:19:32;;;;;;;3.20;0.80;;;;;;;;;;5005098;28;20042;-61
2022/03/21 03:21:58;;;;;;;3.67;0.50;;;;;;;;;;5007772;28;20587;-61
2022/03/21 03:24:25;;;;;;;1.90;0.52;;;;;;;;;;5005543;28;20073;-61
2022/03/21 03:26:51;;;;;;;1.15;0.40;;;;;;;;;;5007913;27;20046;-62
2022/03/21 03:29:17;;;;;;;3.15;0.77;;;;;;;;;;5007188;28;20092;-61
2022/03/21 03:31:43;;;;;;;1.98;0.60;;;;;;;;;;5006082;28;20045;-61
2022/03/21 03:34:09;;;;;;;1.83;0.50;;;;;;;;;;5004444;28;21760;-62
2022/03/21 03:36:36;;;;;;;2.58;0.50;;;;;;;;;;5007371;28;20038;-62
2022/03/21 03:39:02;;;;;;;2.10;0.57;;;;;;;;;;5005730;28;20054;-62
2022/03/21 03:41:28;;;;;;;1.05;0.40;;;;;;;;;;5006116;28;20046;-62
2022/03/21 03:43:54;;;;;;;1.25;0.50;;;;;;;;;;5002432;28;20431;-64
2022/03/21 03:46:21;;;;;;;1.08;0.40;;;;;;;;;;5004637;28;20058;-63
2022/03/21 03:48:47;;;;;;;1.10;0.45;;;;;;;;;;5005729;28;20038;-62
2022/03/21 03:51:13;;;;;;;5.03;0.60;;;;;;;;;;5006919;28;20812;-63
2022/03/21 03:53:40;;;;;;;2.95;0.60;;;;;;;;;;5005548;28;20451;-62
2022/03/21 03:56:06;;;;;;;2.92;0.60;;;;;;;;;;5006874;27;20410;-62
2022/03/21 03:58:36;;;;;;;2.92;0.57;;;;;;;;;;5007794;27;20046;-61
2022/03/21 04:01:04;;;;;;;1.17;0.45;;;;;;;;;;5004649;28;20829;-61
2022/03/21 04:03:46;;;;;;;2.30;0.63;;;;;;;;;;4994912;28;20063;-61
2022/03/21 04:06:16;;;;;;;2.00;0.60;;;;;;;;;;5004902;28;20046;-59
2022/03/21 04:08:42;;;;;;;1.38;0.50;;;;;;;;;;5005154;27;20470;-60
2022/03/21 04:11:08;;;;;;;1.95;0.60;;;;;;;;;;5007245;27;20395;-60
2022/03/21 04:13:34;;;;;;;2.10;0.60;;;;;;;;;;5005500;27;20125;-59
2022/03/21 04:16:00;;;;;;;2.42;0.68;;;;;;;;;;5006861;28;20105;-61
2022/03/21 04:18:26;;;;;;;5.25;0.70;;;;;;;;;;5005752;28;20082;-61
2022/03/21 04:20:52;;;;;;;6.95;0.70;;;;;;;;;;5007025;27;20045;-60
2022/03/21 04:23:19;;;;;;;1.60;0.50;;;;;;;;;;5006227;28;20780;-61
2022/03/21 04:25:45;;;;;;;1.55;0.50;;;;;;;;;;5008822;27;20044;-61
2022/03/21 04:28:11;;;;;;;1.42;0.50;;;;;;;;;;5011519;27;20036;-61
2022/03/21 04:30:38;;;;;;;6.22;0.57;;;;;;;;;;5009329;27;22145;-61
2022/03/21 04:33:04;;;;;;;2.08;0.50;;;;;;;;;;5108833;27;20497;-62
2022/03/21 04:35:30;;;;;;;4.40;0.63;;;;;;;;;;5006450;27;20041;-63
2022/03/21 04:37:56;;;;;;;3.17;0.68;;;;;;;;;;5009951;28;20037;-62
2022/03/21 04:40:25;;;;;;;1.55;0.40;;;;;;;;;;5009508;28;20036;-61
2022/03/21 04:42:51;;;;;;;4.65;0.60;;;;;;;;;;5010938;27;20636;-62
2022/03/21 04:45:17;;;;;;;1.92;0.60;;;;;;;;;;5007737;28;20038;-62
2022/03/21 04:47:43;;;;;;;1.83;0.70;;;;;;;;;;5007182;28;20049;-60
2022/03/21 04:50:09;;;;;;;1.88;0.50;;;;;;;;;;5005475;28;20827;-61
2022/03/21 04:52:36;;;;;;;5.85;0.60;;;;;;;;;;5005279;27;20050;-62
2022/03/21 04:55:03;;;;;;;1.30;0.50;;;;;;;;;;4986584;28;20500;-61
2022/03/21 04:57:30;;;;;;;2.10;0.60;;;;;;;;;;5003973;28;20119;-61
2022/03/21 04:59:56;;;;;;;5.38;0.50;;;;;;;;;;5004402;28;20052;-60
2022/03/21 05:02:22;;;;;;;1.25;0.40;;;;;;;;;;5004823;28;20045;-60
2022/03/21 05:04:48;;;;;;;1.33;0.47;;;;;;;;;;5001117;28;20052;-60
2022/03/21 05:07:17;;;;;;;1.50;0.52;;;;;;;;;;5005279;28;20525;-60
2022/03/21 05:09:44;;;;;;;2.53;0.60;;;;;;;;;;5004085;28;20132;-60
2022/03/21 05:12:10;;;;;;;1.92;0.50;;;;;;;;;;5003793;28;20490;-61
2022/03/21 05:14:36;;;;;;;1.13;0.43;;;;;;;;;;5002407;28;20048;-60
2022/03/21 05:17:02;;;;;;;0.40;0.32;;;;;;;;;;5006636;28;20041;-60
2022/03/21 05:19:28;;;;;;;8.52;0.75;;;;;;;;;;5003817;28;20566;-60
2022/03/21 05:21:54;;;;;;;1.65;0.47;;;;;;;;;;5001905;28;20418;-61
2022/03/21 05:32:32;;;;;;;1.13;0.50;;;;;;;;;;5004596;28;20471;-61
2022/03/21 05:37:42;;;;;;;0.75;0.40;;;;;;;;;;5004572;28;20065;-61
2022/03/21 05:42:55;;;;;;;1.60;0.50;;;;;;;;;;5003748;28;20071;-61
2022/03/21 05:45:20;;;;;;;1.50;0.47;;;;;;;;;;5004301;28;20050;-61
2022/03/21 05:50:35;;;;;;;0.80;0.30;;;;;;;;;;5004448;28;20145;-61
2022/03/21 05:53:02;;;;;;;1.55;0.50;;;;;;;;;;5005163;28;20056;-60
2022/03/21 05:55:29;;;;;;;1.10;0.50;;;;;;;;;;5004609;28;20068;-60
2022/03/21 05:57:55;;;;;;;1.10;0.40;;;;;;;;;;5004742;28;20057;-59
2022/03/21 06:00:21;;;;;;;7.55;0.70;;;;;;;;;;5004719;28;20033;-59
2022/03/21 06:02:48;;;;;;;2.15;0.47;;;;;;;;;;5004934;28;20114;-60
2022/03/21 06:05:13;;;;;;;0.98;0.40;;;;;;;;;;5003886;28;20387;-60
2022/03/21 06:07:39;;;;;;;2.47;0.55;;;;;;;;;;5005585;28;20048;-60
2022/03/21 06:10:05;;;;;;;1.63;0.43;;;;;;;;;;5004111;28;20432;-60
2022/03/21 06:12:31;;;;;;;1.17;0.47;;;;;;;;;;5003703;28;20041;-60
2022/03/21 06:14:57;;;;;;;0.73;0.32;;;;;;;;;;5004484;28;20037;-61
2022/03/21 06:17:23;;;;;;;1.80;0.43;;;;;;;;;;5001876;28;20081;-60
2022/03/21 06:19:52;;;;;;;1.35;0.50;;;;;;;;;;5004713;28;20121;-62
2022/03/21 06:22:18;;;;;;;1.13;0.50;;;;;;;;;;5003495;28;20132;-61
2022/03/21 06:24:43;;;;;;;1.27;0.40;;;;;;;;;;5004074;28;20340;-61
2022/03/21 06:27:09;;;;;;;1.67;0.45;;;;;;;;;;5004994;28;20899;-61
2022/03/21 06:29:39;;;;;;;3.45;0.60;;;;;;;;;;5005306;28;20045;-61
2022/03/21 06:32:05;;;;;;;1.67;0.50;;;;;;;;;;5004260;28;20037;-61
2022/03/21 06:34:31;;;;;;;1.27;0.40;;;;;;;;;;5002952;28;20060;-61
2022/03/21 06:36:56;;;;;;;1.65;0.50;;;;;;;;;;5002317;28;20053;-61
2022/03/21 06:39:22;;;;;;;1.42;0.43;;;;;;;;;;5003831;28;20044;-61
2022/03/21 06:41:51;;;;;;;0.57;0.30;;;;;;;;;;5004543;28;20098;-61
2022/03/21 06:44:17;;;;;;;0.80;0.35;;;;;;;;;;5003061;28;20583;-60
2022/03/21 06:46:43;;;;;;;1.65;0.50;;;;;;;;;;5005523;28;20159;-60
2022/03/21 06:49:08;;;;;;;0.57;0.40;;;;;;;;;;5004218;28;20037;-60
2022/03/21 06:51:34;;;;;;;1.58;0.60;;;;;;;;;;5003931;28;20514;-60
2022/03/21 06:54:00;;;;;;;0.40;0.30;;;;;;;;;;5003581;28;20519;-59
2022/03/21 06:56:26;;;;;;;1.60;0.40;;;;;;;;;;5003606;28;20465;-60
2022/03/21 06:58:52;;;;;;;1.42;0.60;;;;;;;;;;5001684;28;20048;-59
2022/03/21 07:01:18;;;;;;;1.65;0.57;;;;;;;;;;5003835;28;20030;-60
2022/03/21 07:03:44;;;;;;;0.85;0.40;;;;;;;;;;5003039;28;20055;-61
2022/03/21 07:06:10;;;;;;;8.95;0.60;;;;;;;;;;5003877;28;20038;-60
2022/03/21 07:08:35;;;;;;;2.15;0.40;;;;;;;;;;5003845;28;20050;-61
2022/03/21 07:11:02;;;;;;;0.82;0.40;;;;;;;;;;5005058;28;20137;-61
2022/03/21 07:13:29;;;;;;;1.55;0.47;;;;;;;;;;5004953;28;20025;-61
2022/03/21 07:15:56;;;;;;;1.80;0.50;;;;;;;;;;5003565;28;20037;-61
2022/03/21 07:18:22;;;;;;;1.27;0.50;;;;;;;;;;4996556;28;20042;-61
2022/03/21 07:20:48;;;;;;;1.25;0.43;;;;;;;;;;5006620;28;20709;-61
2022/03/21 07:23:14;;;;;;;2.55;0.63;;;;;;;;;;5005719;28;20142;-61
2022/03/21 07:25:40;;;;;;;1.75;0.50;;;;;;;;;;5006427;28;20161;-59
2022/03/21 07:28:06;;;;;;;1.42;0.40;;;;;;;;;;5008466;28;20045;-59
2022/03/21 07:30:32;;;;;;;0.63;0.40;;;;;;;;;;5006227;28;20034;-61
2022/03/21 07:32:59;;;;;;;1.92;0.40;;;;;;;;;;5005283;28;20049;-61
2022/03/21 07:35:25;;;;;;;1.92;0.50;;;;;;;;;;5005204;28;20103;-59
2022/03/21 07:37:52;;;;;;;2.42;0.50;;;;;;;;;;5006802;28;20160;-61
2022/03/21 07:40:19;;;;;;;0.98;0.40;;;;;;;;;;5006900;28;20593;-61
2022/03/21 07:42:45;;;;;;;1.42;0.45;;;;;;;;;;5005002;28;20038;-61
2022/03/21 07:47:55;;;;;;;3.28;0.60;;;;;;;;;;5005414;28;20072;-61
2022/03/21 07:50:25;;;;;;;0.95;0.43;;;;;;;;;;5008320;28;20148;-59
2022/03/21 07:52:51;;;;;;;1.38;0.50;;;;;;;;;;5005789;28;20103;-61
2022/03/21 07:55:17;;;;;;;2.17;0.47;;;;;;;;;;5007493;28;20025;-61
2022/03/21 07:57:43;;;;;;;1.38;0.57;;;;;;;;;;5003254;28;20053;-60
2022/03/21 08:00:09;;;;;;;1.23;0.50;;;;;;;;;;5006380;28;20368;-60
2022/03/21 08:02:37;;;;;;;1.17;0.40;;;;;;;;;;5007509;28;20042;-60
2022/03/21 08:05:04;;;;;;;1.20;0.45;;;;;;;;;;5005795;28;20461;-61
2022/03/21 08:07:30;;;;;;;2.25;0.50;;;;;;;;;;5008351;28;20041;-61
2022/03/21 08:09:56;;;;;;;2.30;0.50;;;;;;;;;;5007502;27;20048;-61
2022/03/21 08:12:21;;;;;;;1.02;0.40;;;;;;;;;;5006596;27;20826;-61
2022/03/21 08:14:47;;;;;;;1.02;0.40;;;;;;;;;;5007631;28;20549;-61
2022/03/21 08:17:13;;;;;;;1.17;0.40;;;;;;;;;;5007606;28;20103;-60
2022/03/21 08:19:39;;;;;;;0.98;0.43;;;;;;;;;;5006384;28;20174;-61
2022/03/21 08:22:05;;;;;;;0.82;0.40;;;;;;;;;;5020021;27;20051;-61
2022/03/21 08:24:37;;;;;;;1.70;0.50;;;;;;;;;;5007552;28;20394;-64
2022/03/21 08:27:04;;;;;;;1.20;0.43;;;;;;;;;;5008148;28;20155;-60
2022/03/21 08:29:31;;;;;;;1.25;0.50;;;;;;;;;;5006808;28;20114;-61
2022/03/21 08:31:57;;;;;;;1.00;0.50;;;;;;;;;;5009806;28;20217;-60
2022/03/21 08:34:23;;;;;;;0.65;0.38;;;;;;;;;;5008959;28;20921;-60
2022/03/21 08:36:49;;;;;;;1.10;0.40;;;;;;;;;;5010583;28;21093;-60
2022/03/21 08:39:15;;;;;;;1.52;0.50;;;;;;;;;;5010013;28;20042;-59
2022/03/21 08:41:40;;;;;;;0.82;0.40;;;;;;;;;;5007338;28;20038;-60
2022/03/21 08:44:07;;;;;;;0.90;0.40;;;;;;;;;;5006956;28;20042;-60
2022/03/21 08:46:32;;;;;;;5.50;0.50;;;;;;;;;;5018923;28;20041;-60
2022/03/21 08:51:43;;;;;;;2.03;0.50;;;;;;;;;;5005142;28;20049;-62
2022/03/21 08:54:09;;;;;;;1.20;0.40;;;;;;;;;;5004069;28;20041;-60
2022/03/21 08:56:35;;;;;;;3.85;0.50;;;;;;;;;;5004375;28;20038;-61
2022/03/21 08:59:02;;;;;;;6.80;0.70;;;;;;;;;;5007574;28;20559;-61
2022/03/21 09:01:28;;;;;;;1.65;0.55;;;;;;;;;;5006673;28;20032;-62
2022/03/21 09:03:55;;;;;;;1.88;0.57;;;;;;;;;;5005911;28;20052;-62
2022/03/21 09:06:21;;;;;;;0.85;0.40;;;;;;;;;;5004073;28;20424;-61
2022/03/21 09:08:48;;;;;;;0.70;0.30;;;;;;;;;;5006890;28;20041;-61
2022/03/21 09:11:14;;;;;;;1.63;0.57;;;;;;;;;;5006074;28;20049;-61
2022/03/21 09:13:40;;;;;;;1.35;0.40;;;;;;;;;;5005620;28;20536;-62
2022/03/21 09:16:06;;;;;;;0.65;0.40;;;;;;;;;;5004342;28;20046;-60
2022/03/21 09:18:32;;;;;;;1.40;0.50;;;;;;;;;;5004434;27;20133;-61
2022/03/21 09:20:58;;;;;;;1.55;0.45;;;;;;;;;;5003765;28;20030;-60
2022/03/21 09:23:24;;;;;;;2.03;0.57;;;;;;;;;;5006556;28;20067;-60
2022/03/21 09:25:50;;;;;;;1.13;0.40;;;;;;;;;;5002626;28;20037;-60
2022/03/21 09:28:16;;;;;;;1.48;0.47;;;;;;;;;;5006807;28;20502;-61
2022/03/21 09:30:42;;;;;;;1.15;0.40;;;;;;;;;;5007002;28;20033;-61
2022/03/21 09:33:09;;;;;;;1.17;0.40;;;;;;;;;;5008087;28;20069;-61
2022/03/21 09:35:35;;;;;;;1.55;0.40;;;;;;;;;;5005945;28;20041;-61
2022/03/21 09:38:03;;;;;;;1.58;0.50;;;;;;;;;;5006653;28;20053;-60
2022/03/21 09:40:29;;;;;;;1.13;0.40;;;;;;;;;;5004911;28;20040;-59
2022/03/21 09:42:55;;;;;;;1.85;0.60;;;;;;;;;;5006656;28;20137;-62
2022/03/21 09:45:21;;;;;;;1.15;0.50;;;;;;;;;;5005202;28;20038;-62
2022/03/21 09:50:35;;;;;;;3.17;0.60;;;;;;;;;;5003565;28;20115;-62
2022/03/21 09:53:02;;;;;;;1.00;0.40;;;;;;;;;;5005338;28;20388;-61
2022/03/21 09:55:28;;;;;;;2.83;0.60;;;;;;;;;;5003140;28;20049;-61
2022/03/21 09:57:54;;;;;;;8.48;0.60;;;;;;;;;;5005077;28;20600;-61
2022/03/21 10:00:20;;;;;;;2.20;0.50;;;;;;;;;;5004526;28;20140;-61
2022/03/21 10:02:46;;;;;;;1.20;0.45;;;;;;;;;;5005108;28;20406;-62
2022/03/21 10:05:44;;;;;;;8.55;0.63;;;;;;;;;;5004588;28;20054;-62
2022/03/21 10:08:10;;;;;;;1.80;0.50;;;;;;;;;;4960492;28;20041;-62
2022/03/21 10:10:36;;;;;;;1.23;0.50;;;;;;;;;;5003736;28;20401;-62
2022/03/21 10:13:02;;;;;;;1.58;0.50;;;;;;;;;;5005678;28;21648;-62
2022/03/21 10:15:29;;;;;;;1.42;0.50;;;;;;;;;;5003228;28;20086;-62
2022/03/21 10:18:05;;;;;;;0.73;0.40;;;;;;;;;;5004025;28;20054;-59
2022/03/21 10:20:34;;;;;;;0.75;0.40;;;;;;;;;;5003603;28;20091;-61
2022/03/21 10:23:16;;;;;;;1.92;0.63;;;;;;;;;;5004785;28;20046;-59
2022/03/21 10:25:42;;;;;;;1.25;0.50;;;;;;;;;;5007047;28;20529;-60
2022/03/21 10:28:08;;;;;;;1.42;0.52;;;;;;;;;;5006728;28;20093;-59
2022/03/21 10:30:41;;;;;;;3.13;0.57;;;;;;;;;;5004995;28;20084;-60
2022/03/21 10:33:07;;;;;;;1.45;0.50;;;;;;;;;;5005504;28;20126;-61
2022/03/21 10:35:44;;;;;;;2.17;0.60;;;;;;;;;;5004143;28;20602;-60
2022/03/21 10:38:10;;;;;;;3.25;0.50;;;;;;;;;;5021932;28;20050;-61
2022/03/21 10:40:44;;;;;;;1.65;0.55;;;;;;;;;;5004785;28;20425;-59
2022/03/21 10:43:14;;;;;;;1.42;0.45;;;;;;;;;;5006337;28;20838;-61
2022/03/21 10:45:51;;;;;;;1.55;0.40;;;;;;;;;;5005027;28;20053;-61
2022/03/21 10:48:18;;;;;;;2.03;0.55;;;;;;;;;;5007405;28;20037;-61
2022/03/21 10:50:48;;;;;;;2.60;0.70;;;;;;;;;;5002978;28;20057;-62
2022/03/21 10:53:15;;;;;;;3.70;0.70;;;;;;;;;;5005563;28;20042;-62
2022/03/21 10:55:43;;;;;;;2.42;0.52;;;;;;;;;;5005017;28;20121;-62
2022/03/21 10:58:09;;;;;;;3.47;0.60;;;;;;;;;;5006705;28;20042;-61
2022/03/21 11:00:35;;;;;;;1.58;0.50;;;;;;;;;;5006706;28;20114;-62
2022/03/21 11:03:06;;;;;;;1.25;0.43;;;;;;;;;;5006975;28;20042;-61
2022/03/21 11:05:37;;;;;;;1.13;0.40;;;;;;;;;;5007345;28;20045;-61
2022/03/21 11:08:04;;;;;;;1.15;0.40;;;;;;;;;;5008835;28;20037;-61
2022/03/21 11:10:30;;;;;;;1.70;0.60;;;;;;;;;;5006760;27;20128;-61
2022/03/21 11:12:57;;;;;;;1.25;0.50;;;;;;;;;;5008043;28;20839;-60
2022/03/21 11:15:24;;;;;;;2.40;0.65;;;;;;;;;;5008510;28;20037;-61
2022/03/21 11:17:51;;;;;;;1.52;0.50;;;;;;;;;;5008248;28;20050;-61
2022/03/21 11:20:17;;;;;;;2.15;0.70;;;;;;;;;;5007544;28;20041;-61
2022/03/21 11:22:43;;;;;;;2.08;0.60;;;;;;;;;;5006899;28;20180;-62
2022/03/21 11:25:13;;;;;;;3.53;0.68;;;;;;;;;;5009360;28;20042;-61
2022/03/21 11:27:51;;;;;;;2.67;0.85;;;;;;;;;;5008513;28;20102;-61
2022/03/21 11:30:21;;;;;;;4.68;0.73;;;;;;;;;;5008454;28;20063;-61
2022/03/21 11:32:50;;;;;;;3.88;0.85;;;;;;;;;;5007322;28;20067;-60
2022/03/21 11:35:23;;;;;;;3.25;0.60;;;;;;;;;;5008645;28;20045;-62
2022/03/21 11:37:50;;;;;;;3.05;0.73;;;;;;;;;;5006791;28;20054;-62
2022/03/21 11:40:30;;;;;;;1.70;0.63;;;;;;;;;;5006994;28;20053;-62
2022/03/21 11:43:19;;;;;;;6.35;0.68;;;;;;;;;;5007690;28;20034;-62
2022/03/21 11:45:45;;;;;;;3.47;0.80;;;;;;;;;;5005100;28;20089;-62
2022/03/21 11:48:17;;;;;;;2.17;0.50;;;;;;;;;;5007694;28;20518;-62
2022/03/21 11:50:44;;;;;;;1.33;0.50;;;;;;;;;;5006164;28;20057;-62
2022/03/21 11:53:10;;;;;;;0.93;0.40;;;;;;;;;;5007593;28;20037;-59
2022/03/21 11:55:41;;;;;;;1.83;0.50;;;;;;;;;;5006094;28;20111;-61
2022/03/21 11:58:22;;;;;;;1.65;0.50;;;;;;;;;;5007200;28;20045;-58
2022/03/21 12:01:06;;;;;;;1.92;0.50;;;;;;;;;;5006919;27;20062;-61
2022/03/21 12:03:33;;;;;;;8.77;0.80;;;;;;;;;;5006007;28;20038;-60
2022/03/21 12:06:18;;;;;;;1.33;0.50;;;;;;;;;;5006650;27;20124;-62
2022/03/21 12:08:45;;;;;;;1.88;0.50;;;;;;;;;;5006691;27;20402;-62
2022/03/21 12:11:31;;;;;;;1.88;0.68;;;;;;;;;;5007014;27;20076;-60
2022/03/21 12:14:17;;;;;;;1.08;0.50;;;;;;;;;;5005534;28;20046;-61
2022/03/21 12:16:43;;;;;;;4.97;0.63;;;;;;;;;;5006476;27;20045;-62
2022/03/21 12:19:08;;;;;;;1.65;0.57;;;;;;;;;;5006954;28;20278;-62
2022/03/21 12:21:34;;;;;;;4.32;0.63;;;;;;;;;;5007000;28;20057;-62
2022/03/21 12:24:14;;;;;;;2.47;0.50;;;;;;;;;;5008478;27;20047;-62
2022/03/21 12:27:05;;;;;;;2.03;0.50;;;;;;;;;;5003409;28;20425;-62
2022/03/21 12:29:31;;;;;;;1.33;0.40;;;;;;;;;;5005589;28;20058;-62
2022/03/21 12:32:20;;;;;;;2.17;0.57;;;;;;;;;;5005671;28;20052;-63
2022/03/21 12:34:46;;;;;;;1.50;0.45;;;;;;;;;;5003422;28;20105;-61
2022/03/21 12:37:39;;;;;;;3.22;0.70;;;;;;;;;;5006958;28;20482;-62
2022/03/21 12:40:08;;;;;;;6.65;0.80;;;;;;;;;;5006098;28;20055;-61
2022/03/21 12:42:35;;;;;;;1.70;0.55;;;;;;;;;;5006578;28;20045;-62
2022/03/21 12:45:01;;;;;;;2.38;0.40;;;;;;;;;;5006465;28;20137;-62
2022/03/21 12:47:27;;;;;;;2.78;0.52;;;;;;;;;;5005416;28;20063;-62
2022/03/21 12:49:55;;;;;;;3.92;0.70;;;;;;;;;;5004919;28;20045;-62
2022/03/21 12:52:27;;;;;;;2.95;0.47;;;;;;;;;;5005027;28;20076;-64
2022/03/21 12:54:54;;;;;;;3.03;0.63;;;;;;;;;;5007382;28;20127;-64
2022/03/21 12:57:21;;;;;;;0.95;0.40;;;;;;;;;;5005184;28;20058;-63
2022/03/21 12:59:46;;;;;;;0.85;0.50;;;;;;;;;;5003875;28;20038;-63
2022/03/21 13:02:25;;;;;;;1.13;0.50;;;;;;;;;;5006378;28;20043;-63
2022/03/21 13:10:32;;;;;;;1.30;0.40;;;;;;;;;;5004474;28;20044;-62
2022/03/21 13:13:00;;;;;;;1.98;0.60;;;;;;;;;;5006452;28;20041;-62
2022/03/21 13:15:27;;;;;;;2.47;0.60;;;;;;;;;;5004832;28;21711;-62
2022/03/21 13:17:57;;;;;;;4.35;0.60;;;;;;;;;;5020474;28;20423;-62
2022/03/21 13:20:27;;;;;;;3.67;0.50;;;;;;;;;;5006288;28;20048;-62
2022/03/21 13:22:53;;;;;;;1.65;0.60;;;;;;;;;;5005618;28;20060;-62
2022/03/21 13:25:23;;;;;;;7.78;0.80;;;;;;;;;;5004415;28;20041;-62
2022/03/21 13:27:50;;;;;;;3.53;0.93;;;;;;;;;;5007540;28;20046;-62
2022/03/21 13:30:16;;;;;;;1.10;0.50;;;;;;;;;;5007489;27;20034;-62
2022/03/21 13:32:43;;;;;;;4.55;0.50;;;;;;;;;;5008575;27;20582;-62
2022/03/21 13:35:11;;;;;;;2.30;0.65;;;;;;;;;;5009294;28;20685;-62
2022/03/21 13:37:37;;;;;;;1.67;0.60;;;;;;;;;;5008806;27;20061;-62
2022/03/21 13:40:04;;;;;;;2.38;0.70;;;;;;;;;;5009990;28;20117;-63
2022/03/21 13:42:34;;;;;;;2.63;0.63;;;;;;;;;;5011339;28;20038;-62
2022/03/21 13:45:03;;;;;;;1.38;0.57;;;;;;;;;;5012141;28;20034;-61
2022/03/21 13:47:29;;;;;;;2.15;0.60;;;;;;;;;;5060018;27;20082;-62
2022/03/21 13:50:07;;;;;;;1.70;0.60;;;;;;;;;;5039456;27;20046;-60
2022/03/21 13:52:46;;;;;;;2.30;0.50;;;;;;;;;;5004245;28;20043;-64
2022/03/21 13:55:24;;;;;;;1.35;0.50;;;;;;;;;;5007466;28;20041;-62
2022/03/21 13:57:57;;;;;;;4.75;0.60;;;;;;;;;;5005549;28;20049;-61
2022/03/21 14:00:42;;;;;;;4.28;0.77;;;;;;;;;;5006418;28;20132;-61
2022/03/21 14:03:09;;;;;;;1.88;0.63;;;;;;;;;;5007953;28;20042;-61
2022/03/21 14:05:36;;;;;;;2.25;0.70;;;;;;;;;;5004415;28;20042;-61
2022/03/21 14:08:09;;;;;;;2.50;0.70;;;;;;;;;;5008732;27;20061;-62
2022/03/21 14:10:39;;;;;;;2.75;0.80;;;;;;;;;;5006713;28;20049;-61
2022/03/21 14:13:11;;;;;;;2.83;0.70;;;;;;;;;;5007268;28;20153;-61
2022/03/21 14:15:37;;;;;;;1.57;0.50;;;;;;;;;;5005819;28;20396;-61
2022/03/21 14:18:04;;;;;;;2.47;0.55;;;;;;;;;;5006759;28;20427;-62
2022/03/21 14:20:31;;;;;;;1.02;0.50;;;;;;;;;;5004319;28;20459;-62
2022/03/21 14:22:57;;;;;;;1.58;0.50;;;;;;;;;;5006894;28;20050;-62
2022/03/21 14:28:07;;;;;;;9.63;0.85;;;;;;;;;;5007226;28;20106;-60
2022/03/21 14:30:33;;;;;;;1.63;0.50;;;;;;;;;;5007128;28;20490;-62
2022/03/21 14:32:59;;;;;;;1.10;0.43;;;;;;;;;;5006876;28;20078;-60
2022/03/21 14:35:25;;;;;;;0.43;0.30;;;;;;;;;;5010274;28;20224;-61
2022/03/21 14:37:50;;;;;;;1.00;0.43;;;;;;;;;;5011429;28;20053;-62
2022/03/21 14:40:17;;;;;;;2.05;0.60;;;;;;;;;;5011667;28;20037;-62
2022/03/21 14:42:43;;;;;;;1.35;0.60;;;;;;;;;;5010140;28;20570;-62
2022/03/21 14:45:10;;;;;;;1.13;0.38;;;;;;;;;;5009997;28;20397;-62
2022/03/21 14:47:37;;;;;;;1.02;0.45;;;;;;;;;;5010217;27;20212;-62
2022/03/21 14:50:04;;;;;;;7.68;0.80;;;;;;;;;;5008839;28;20082;-62
2022/03/21 14:52:30;;;;;;;2.95;0.63;;;;;;;;;;5009595;28;20042;-62
2022/03/21 14:54:56;;;;;;;0.50;0.30;;;;;;;;;;5011842;28;20042;-63
2022/03/21 14:57:22;;;;;;;6.13;0.60;;;;;;;;;;5010720;28;20046;-62
2022/03/21 14:59:48;;;;;;;2.03;0.63;;;;;;;;;;5009401;28;20138;-62
2022/03/21 15:02:14;;;;;;;1.90;0.50;;;;;;;;;;5010240;28;20046;-59
2022/03/21 15:04:40;;;;;;;1.70;0.57;;;;;;;;;;5008642;28;20998;-62
2022/03/21 15:07:06;;;;;;;3.88;0.50;;;;;;;;;;5009190;28;20124;-62
2022/03/21 15:10:20;;;;;;;1.90;0.50;;;;;;;;;;5008150;28;20690;-62
2022/03/21 15:12:18;;;;;;;3.78;0.57;;;;;;;;;;5011414;28;20053;-61
2022/03/21 15:14:44;;;;;;;1.38;0.40;;;;;;;;;;5013120;28;20600;-61
2022/03/21 15:17:10;;;;;;;1.90;0.50;;;;;;;;;;5012742;28;20054;-62
2022/03/21 15:19:36;;;;;;;3.97;0.60;;;;;;;;;;5009676;28;20475;-62
2022/03/21 15:22:02;;;;;;;7.63;0.50;;;;;;;;;;5011824;28;20042;-62